sensor_id;sensor_type;location;lat;lon;timestamp;P1;durP1;ratioP1;P2;durP2;ratioP2
27869;SDS011;15225;50.730;4.244;2023-12-22T09:49:33;2.80;;;1.60;;
27869;SDS011;15225;50.730;4.244;2023-12-22T09:51:59;3.63;;;1.40;;
27869;SDS011;15225;50.730;4.244;2023-12-22T09:54:28;7.38;;;1.55;;
27869;SDS011;15225;50.730;4.244;2023-12-22T09:56:59;6.47;;;1.77;;
27869;SDS011;15225;50.730;4.244;2023-12-22T09:59:25;5.38;;;1.65;;
27869;SDS011;15225;50.730;4.244;2023-12-22T10:01:53;3.83;;;1.05;;
27869;SDS011;15225;50.730;4.244;2023-12-22T10:04:20;7.80;;;1.38;;
27869;SDS011;15225;50.730;4.244;2023-12-22T10:06:46;2.85;;;1.10;;
27869;SDS011;15225;50.730;4.244;2023-12-22T10:09:13;4.07;;;1.42;;
27869;SDS011;15225;50.730;4.244;2023-12-22T10:11:40;5.70;;;1.83;;
27869;SDS011;15225;50.730;4.244;2023-12-22T10:14:08;4.93;;;1.15;;
27869;SDS011;15225;50.730;4.244;2023-12-22T10:16:35;3.45;;;1.15;;
27869;SDS011;15225;50.730;4.244;2023-12-22T10:19:03;4.45;;;1.40;;
27869;SDS011;15225;50.730;4.244;2023-12-22T10:21:29;7.70;;;1.40;;
27869;SDS011;15225;50.730;4.244;2023-12-22T10:23:58;9.30;;;1.80;;
27869;SDS011;15225;50.730;4.244;2023-12-22T10:26:23;5.80;;;1.90;;
27869;SDS011;15225;50.730;4.244;2023-12-22T10:28:49;6.03;;;1.15;;
27869;SDS011;15225;50.730;4.244;2023-12-22T10:31:16;3.88;;;1.35;;
27869;SDS011;15225;50.730;4.244;2023-12-22T10:33:43;7.10;;;1.63;;
27869;SDS011;15225;50.730;4.244;2023-12-22T10:36:09;2.78;;;1.33;;
27869;SDS011;15225;50.730;4.244;2023-12-22T10:38:35;4.75;;;1.50;;
27869;SDS011;15225;50.730;4.244;2023-12-22T10:41:01;5.53;;;1.40;;
27869;SDS011;15225;50.730;4.244;2023-12-22T10:43:28;4.93;;;1.35;;
27869;SDS011;15225;50.730;4.244;2023-12-22T10:45:54;4.88;;;1.60;;
27869;SDS011;15225;50.730;4.244;2023-12-22T10:48:20;3.58;;;1.48;;
27869;SDS011;15225;50.730;4.244;2023-12-22T10:50:48;1.63;;;1.05;;
27869;SDS011;15225;50.730;4.244;2023-12-22T10:53:14;9.07;;;2.75;;
27869;SDS011;15225;50.730;4.244;2023-12-22T10:55:40;3.83;;;1.35;;
27869;SDS011;15225;50.730;4.244;2023-12-22T10:58:05;3.78;;;1.58;;
27869;SDS011;15225;50.730;4.244;2023-12-22T11:00:36;4.75;;;1.70;;
27869;SDS011;15225;50.730;4.244;2023-12-22T11:03:06;7.10;;;2.28;;
27869;SDS011;15225;50.730;4.244;2023-12-22T11:05:36;3.60;;;1.45;;
27869;SDS011;15225;50.730;4.244;2023-12-22T11:08:05;3.58;;;1.45;;
27869;SDS011;15225;50.730;4.244;2023-12-22T11:10:33;5.80;;;1.40;;
27869;SDS011;15225;50.730;4.244;2023-12-22T11:13:03;4.90;;;1.83;;
27869;SDS011;15225;50.730;4.244;2023-12-22T11:15:30;4.10;;;1.55;;
27869;SDS011;15225;50.730;4.244;2023-12-22T11:17:57;4.25;;;1.60;;
27869;SDS011;15225;50.730;4.244;2023-12-22T11:20:24;2.03;;;1.30;;
27869;SDS011;15225;50.730;4.244;2023-12-22T11:22:51;4.88;;;1.60;;
27869;SDS011;15225;50.730;4.244;2023-12-22T11:25:19;3.80;;;1.50;;
27869;SDS011;15225;50.730;4.244;2023-12-22T11:27:45;2.75;;;1.58;;
27869;SDS011;15225;50.730;4.244;2023-12-22T11:30:13;3.95;;;1.50;;
27869;SDS011;15225;50.730;4.244;2023-12-22T11:32:39;2.67;;;1.80;;
27869;SDS011;15225;50.730;4.244;2023-12-22T11:35:06;3.78;;;1.40;;
27869;SDS011;15225;50.730;4.244;2023-12-22T11:37:35;2.63;;;1.20;;
27869;SDS011;15225;50.730;4.244;2023-12-22T11:40:03;3.40;;;1.30;;
27869;SDS011;15225;50.730;4.244;2023-12-22T11:42:31;4.53;;;1.20;;
27869;SDS011;15225;50.730;4.244;2023-12-22T11:45:02;5.43;;;1.80;;
27869;SDS011;15225;50.730;4.244;2023-12-22T11:47:28;3.25;;;1.33;;
27869;SDS011;15225;50.730;4.244;2023-12-22T11:49:54;4.30;;;1.27;;
27869;SDS011;15225;50.730;4.244;2023-12-22T11:52:29;4.22;;;1.92;;
27869;SDS011;15225;50.730;4.244;2023-12-22T11:54:57;1.48;;;1.08;;
27869;SDS011;15225;50.730;4.244;2023-12-22T11:57:33;3.15;;;1.20;;
27869;SDS011;15225;50.730;4.244;2023-12-22T12:00:05;3.03;;;1.60;;
27869;SDS011;15225;50.730;4.244;2023-12-22T12:02:35;4.60;;;1.70;;
27869;SDS011;15225;50.730;4.244;2023-12-22T12:05:03;5.25;;;1.52;;
27869;SDS011;15225;50.730;4.244;2023-12-22T12:07:42;4.63;;;1.48;;
27869;SDS011;15225;50.730;4.244;2023-12-22T12:13:23;2.60;;;1.20;;
27869;SDS011;15225;50.730;4.244;2023-12-22T12:15:53;1.52;;;1.23;;
27869;SDS011;15225;50.730;4.244;2023-12-22T12:18:23;5.35;;;1.25;;
27869;SDS011;15225;50.730;4.244;2023-12-22T12:20:49;3.20;;;1.33;;
27869;SDS011;15225;50.730;4.244;2023-12-22T12:23:15;5.35;;;1.40;;
27869;SDS011;15225;50.730;4.244;2023-12-22T12:25:42;5.47;;;1.10;;
27869;SDS011;15225;50.730;4.244;2023-12-22T12:28:08;7.50;;;1.30;;
27869;SDS011;15225;50.730;4.244;2023-12-22T12:30:35;5.13;;;1.30;;
27869;SDS011;15225;50.730;4.244;2023-12-22T12:33:06;4.60;;;1.42;;
27869;SDS011;15225;50.730;4.244;2023-12-22T12:35:35;6.75;;;1.42;;
27869;SDS011;15225;50.730;4.244;2023-12-22T12:38:03;5.70;;;1.27;;
27869;SDS011;15225;50.730;4.244;2023-12-22T12:40:29;3.60;;;1.20;;
27869;SDS011;15225;50.730;4.244;2023-12-22T12:42:57;3.70;;;1.20;;
27869;SDS011;15225;50.730;4.244;2023-12-22T12:45:23;3.05;;;1.23;;
27869;SDS011;15225;50.730;4.244;2023-12-22T12:50:25;3.72;;;1.15;;
27869;SDS011;15225;50.730;4.244;2023-12-22T12:52:54;5.20;;;1.50;;
27869;SDS011;15225;50.730;4.244;2023-12-22T12:55:20;3.08;;;1.45;;
27869;SDS011;15225;50.730;4.244;2023-12-22T12:57:50;6.10;;;1.60;;
27869;SDS011;15225;50.730;4.244;2023-12-22T13:00:23;7.22;;;1.35;;
27869;SDS011;15225;50.730;4.244;2023-12-22T13:02:49;9.35;;;1.52;;
27869;SDS011;15225;50.730;4.244;2023-12-22T13:05:24;7.40;;;1.45;;
27869;SDS011;15225;50.730;4.244;2023-12-22T13:07:50;6.78;;;1.38;;
27869;SDS011;15225;50.730;4.244;2023-12-22T13:10:23;5.45;;;1.35;;
27869;SDS011;15225;50.730;4.244;2023-12-22T13:12:50;4.45;;;1.13;;
27869;SDS011;15225;50.730;4.244;2023-12-22T13:15:19;3.55;;;1.10;;
27869;SDS011;15225;50.730;4.244;2023-12-22T13:17:47;8.38;;;1.40;;
27869;SDS011;15225;50.730;4.244;2023-12-22T13:20:13;3.88;;;1.38;;
27869;SDS011;15225;50.730;4.244;2023-12-22T13:22:39;6.72;;;1.77;;
27869;SDS011;15225;50.730;4.244;2023-12-22T13:25:05;3.10;;;1.30;;
27869;SDS011;15225;50.730;4.244;2023-12-22T13:27:31;7.13;;;1.50;;
27869;SDS011;15225;50.730;4.244;2023-12-22T13:29:56;4.50;;;1.20;;
27869;SDS011;15225;50.730;4.244;2023-12-22T13:32:22;4.15;;;1.52;;
27869;SDS011;15225;50.730;4.244;2023-12-22T13:34:55;7.93;;;1.52;;
27869;SDS011;15225;50.730;4.244;2023-12-22T13:37:22;4.72;;;1.52;;
27869;SDS011;15225;50.730;4.244;2023-12-22T13:39:51;4.57;;;1.55;;
27869;SDS011;15225;50.730;4.244;2023-12-22T13:42:17;5.63;;;2.22;;
27869;SDS011;15225;50.730;4.244;2023-12-22T13:44:45;3.72;;;1.40;;
27869;SDS011;15225;50.730;4.244;2023-12-22T13:47:17;3.75;;;1.55;;
27869;SDS011;15225;50.730;4.244;2023-12-22T13:49:43;6.32;;;1.38;;
27869;SDS011;15225;50.730;4.244;2023-12-22T13:52:28;4.53;;;1.40;;
27869;SDS011;15225;50.730;4.244;2023-12-22T13:54:57;4.60;;;1.20;;
27869;SDS011;15225;50.730;4.244;2023-12-22T13:57:25;3.55;;;1.15;;
27869;SDS011;15225;50.730;4.244;2023-12-22T13:59:51;5.60;;;1.40;;
27869;SDS011;15225;50.730;4.244;2023-12-22T14:02:19;3.05;;;1.05;;
27869;SDS011;15225;50.730;4.244;2023-12-22T14:04:48;6.03;;;1.90;;
27869;SDS011;15225;50.730;4.244;2023-12-22T14:07:15;5.20;;;1.40;;
27869;SDS011;15225;50.730;4.244;2023-12-22T14:09:40;8.27;;;1.60;;
27869;SDS011;15225;50.730;4.244;2023-12-22T14:12:06;4.00;;;1.10;;
27869;SDS011;15225;50.730;4.244;2023-12-22T14:14:32;4.00;;;1.35;;
27869;SDS011;15225;50.730;4.244;2023-12-22T14:16:57;4.35;;;1.65;;
27869;SDS011;15225;50.730;4.244;2023-12-22T14:19:23;5.60;;;1.50;;
27869;SDS011;15225;50.730;4.244;2023-12-22T14:21:49;9.10;;;1.67;;
27869;SDS011;15225;50.730;4.244;2023-12-22T14:24:14;2.92;;;1.17;;
27869;SDS011;15225;50.730;4.244;2023-12-22T14:26:55;5.47;;;1.60;;
27869;SDS011;15225;50.730;4.244;2023-12-22T14:29:21;5.28;;;1.55;;
27869;SDS011;15225;50.730;4.244;2023-12-22T14:31:51;6.47;;;1.58;;
27869;SDS011;15225;50.730;4.244;2023-12-22T14:34:17;7.40;;;1.92;;
27869;SDS011;15225;50.730;4.244;2023-12-22T14:36:43;6.18;;;1.75;;
27869;SDS011;15225;50.730;4.244;2023-12-22T14:39:10;3.83;;;1.20;;
27869;SDS011;15225;50.730;4.244;2023-12-22T14:41:38;5.00;;;1.63;;
27869;SDS011;15225;50.730;4.244;2023-12-22T14:44:05;6.47;;;1.35;;
27869;SDS011;15225;50.730;4.244;2023-12-22T14:46:30;7.25;;;1.52;;
27869;SDS011;15225;50.730;4.244;2023-12-22T14:48:56;8.85;;;1.60;;
27869;SDS011;15225;50.730;4.244;2023-12-22T14:51:21;5.63;;;1.20;;
27869;SDS011;15225;50.730;4.244;2023-12-22T14:53:47;5.03;;;1.27;;
27869;SDS011;15225;50.730;4.244;2023-12-22T14:56:13;5.15;;;1.77;;
27869;SDS011;15225;50.730;4.244;2023-12-22T14:58:38;3.83;;;1.45;;
27869;SDS011;15225;50.730;4.244;2023-12-22T15:01:04;8.65;;;1.98;;
27869;SDS011;15225;50.730;4.244;2023-12-22T15:03:29;3.00;;;1.40;;
27869;SDS011;15225;50.730;4.244;2023-12-22T15:05:55;4.38;;;1.60;;
27869;SDS011;15225;50.730;4.244;2023-12-22T15:08:21;6.78;;;1.20;;
27869;SDS011;15225;50.730;4.244;2023-12-22T15:10:46;9.07;;;1.67;;
27869;SDS011;15225;50.730;4.244;2023-12-22T15:13:12;5.38;;;1.50;;
27869;SDS011;15225;50.730;4.244;2023-12-22T15:15:37;3.63;;;1.50;;
27869;SDS011;15225;50.730;4.244;2023-12-22T15:18:03;4.15;;;1.42;;
27869;SDS011;15225;50.730;4.244;2023-12-22T15:20:30;6.70;;;3.00;;
27869;SDS011;15225;50.730;4.244;2023-12-22T15:22:56;5.03;;;1.70;;
27869;SDS011;15225;50.730;4.244;2023-12-22T15:25:21;5.18;;;1.73;;
27869;SDS011;15225;50.730;4.244;2023-12-22T15:27:47;4.20;;;1.40;;
27869;SDS011;15225;50.730;4.244;2023-12-22T15:30:13;2.72;;;1.20;;
27869;SDS011;15225;50.730;4.244;2023-12-22T15:32:39;3.75;;;1.50;;
27869;SDS011;15225;50.730;4.244;2023-12-22T15:35:04;7.82;;;1.70;;
27869;SDS011;15225;50.730;4.244;2023-12-22T15:37:31;6.88;;;1.80;;
27869;SDS011;15225;50.730;4.244;2023-12-22T15:39:56;10.23;;;2.35;;
27869;SDS011;15225;50.730;4.244;2023-12-22T15:42:22;5.75;;;1.70;;
27869;SDS011;15225;50.730;4.244;2023-12-22T15:44:48;5.80;;;1.65;;
27869;SDS011;15225;50.730;4.244;2023-12-22T15:47:13;6.57;;;1.80;;
27869;SDS011;15225;50.730;4.244;2023-12-22T15:49:39;11.27;;;2.00;;
27869;SDS011;15225;50.730;4.244;2023-12-22T15:52:05;5.93;;;1.75;;
27869;SDS011;15225;50.730;4.244;2023-12-22T15:54:30;5.85;;;1.73;;
27869;SDS011;15225;50.730;4.244;2023-12-22T15:56:56;5.05;;;1.52;;
27869;SDS011;15225;50.730;4.244;2023-12-22T15:59:22;6.70;;;1.83;;
27869;SDS011;15225;50.730;4.244;2023-12-22T16:01:50;8.93;;;2.10;;
27869;SDS011;15225;50.730;4.244;2023-12-22T16:04:16;6.93;;;2.10;;
27869;SDS011;15225;50.730;4.244;2023-12-22T16:06:42;6.25;;;1.75;;
27869;SDS011;15225;50.730;4.244;2023-12-22T16:09:07;4.32;;;1.58;;
27869;SDS011;15225;50.730;4.244;2023-12-22T16:11:33;5.63;;;1.60;;
27869;SDS011;15225;50.730;4.244;2023-12-22T16:13:59;8.07;;;2.47;;
27869;SDS011;15225;50.730;4.244;2023-12-22T16:16:24;7.20;;;1.80;;
27869;SDS011;15225;50.730;4.244;2023-12-22T16:18:50;6.00;;;1.65;;
27869;SDS011;15225;50.730;4.244;2023-12-22T16:21:15;8.07;;;1.73;;
27869;SDS011;15225;50.730;4.244;2023-12-22T16:23:42;6.45;;;2.17;;
27869;SDS011;15225;50.730;4.244;2023-12-22T16:26:07;4.05;;;1.52;;
27869;SDS011;15225;50.730;4.244;2023-12-22T16:28:33;2.80;;;1.30;;
27869;SDS011;15225;50.730;4.244;2023-12-22T16:31:00;6.65;;;2.13;;
27869;SDS011;15225;50.730;4.244;2023-12-22T16:33:29;5.90;;;1.75;;
27869;SDS011;15225;50.730;4.244;2023-12-22T16:35:55;7.38;;;1.90;;
27869;SDS011;15225;50.730;4.244;2023-12-22T16:38:21;5.88;;;1.98;;
27869;SDS011;15225;50.730;4.244;2023-12-22T16:40:46;8.52;;;1.77;;
27869;SDS011;15225;50.730;4.244;2023-12-22T16:43:12;7.20;;;1.75;;
27869;SDS011;15225;50.730;4.244;2023-12-22T16:45:39;7.78;;;1.95;;
27869;SDS011;15225;50.730;4.244;2023-12-22T16:48:05;8.50;;;1.80;;
27869;SDS011;15225;50.730;4.244;2023-12-22T16:50:31;11.73;;;1.83;;
27869;SDS011;15225;50.730;4.244;2023-12-22T16:52:57;5.78;;;1.90;;
27869;SDS011;15225;50.730;4.244;2023-12-22T16:55:23;8.07;;;3.30;;
27869;SDS011;15225;50.730;4.244;2023-12-22T16:57:48;15.00;;;2.28;;
27869;SDS011;15225;50.730;4.244;2023-12-22T17:00:15;8.38;;;2.05;;
27869;SDS011;15225;50.730;4.244;2023-12-22T17:02:42;7.78;;;1.83;;
27869;SDS011;15225;50.730;4.244;2023-12-22T17:05:07;7.47;;;2.80;;
27869;SDS011;15225;50.730;4.244;2023-12-22T17:07:33;7.05;;;1.52;;
27869;SDS011;15225;50.730;4.244;2023-12-22T17:09:59;6.32;;;1.80;;
27869;SDS011;15225;50.730;4.244;2023-12-22T17:12:25;12.05;;;2.60;;
27869;SDS011;15225;50.730;4.244;2023-12-22T17:14:51;4.70;;;1.55;;
27869;SDS011;15225;50.730;4.244;2023-12-22T17:17:16;6.38;;;1.92;;
27869;SDS011;15225;50.730;4.244;2023-12-22T17:19:42;5.25;;;2.03;;
27869;SDS011;15225;50.730;4.244;2023-12-22T17:22:08;7.47;;;1.90;;
27869;SDS011;15225;50.730;4.244;2023-12-22T17:24:33;8.43;;;2.40;;
27869;SDS011;15225;50.730;4.244;2023-12-22T17:26:59;9.85;;;2.30;;
27869;SDS011;15225;50.730;4.244;2023-12-22T17:29:25;7.57;;;1.60;;
27869;SDS011;15225;50.730;4.244;2023-12-22T17:31:50;6.22;;;1.70;;
27869;SDS011;15225;50.730;4.244;2023-12-22T17:34:21;6.72;;;2.03;;
27869;SDS011;15225;50.730;4.244;2023-12-22T17:36:49;10.00;;;2.03;;
27869;SDS011;15225;50.730;4.244;2023-12-22T17:39:15;8.82;;;1.90;;
27869;SDS011;15225;50.730;4.244;2023-12-22T17:41:41;9.18;;;1.70;;
27869;SDS011;15225;50.730;4.244;2023-12-22T17:44:08;8.95;;;1.95;;
27869;SDS011;15225;50.730;4.244;2023-12-22T17:46:34;9.25;;;2.85;;
27869;SDS011;15225;50.730;4.244;2023-12-22T17:49:00;8.75;;;2.47;;
27869;SDS011;15225;50.730;4.244;2023-12-22T17:51:25;9.75;;;2.30;;
27869;SDS011;15225;50.730;4.244;2023-12-22T17:53:51;5.90;;;1.92;;
27869;SDS011;15225;50.730;4.244;2023-12-22T17:56:17;13.82;;;2.38;;
27869;SDS011;15225;50.730;4.244;2023-12-22T17:58:42;12.85;;;2.80;;
27869;SDS011;15225;50.730;4.244;2023-12-22T18:01:08;10.63;;;2.10;;
27869;SDS011;15225;50.730;4.244;2023-12-22T18:03:33;9.20;;;2.42;;
27869;SDS011;15225;50.730;4.244;2023-12-22T18:05:59;10.25;;;2.53;;
27869;SDS011;15225;50.730;4.244;2023-12-22T18:08:25;12.82;;;2.20;;
27869;SDS011;15225;50.730;4.244;2023-12-22T18:10:50;13.75;;;3.03;;
27869;SDS011;15225;50.730;4.244;2023-12-22T18:13:16;8.77;;;2.83;;
27869;SDS011;15225;50.730;4.244;2023-12-22T18:15:42;8.32;;;2.10;;
27869;SDS011;15225;50.730;4.244;2023-12-22T18:18:07;9.95;;;2.33;;
27869;SDS011;15225;50.730;4.244;2023-12-22T18:20:33;9.02;;;2.20;;
27869;SDS011;15225;50.730;4.244;2023-12-22T18:22:59;7.60;;;2.17;;
27869;SDS011;15225;50.730;4.244;2023-12-22T18:25:24;9.77;;;2.40;;
27869;SDS011;15225;50.730;4.244;2023-12-22T18:27:50;7.97;;;2.13;;
27869;SDS011;15225;50.730;4.244;2023-12-22T18:30:16;5.40;;;2.15;;
27869;SDS011;15225;50.730;4.244;2023-12-22T18:32:43;8.68;;;1.85;;
27869;SDS011;15225;50.730;4.244;2023-12-22T18:35:09;7.00;;;2.00;;
27869;SDS011;15225;50.730;4.244;2023-12-22T18:37:36;4.38;;;1.83;;
27869;SDS011;15225;50.730;4.244;2023-12-22T18:40:02;5.05;;;1.75;;
27869;SDS011;15225;50.730;4.244;2023-12-22T18:42:29;7.00;;;2.08;;
27869;SDS011;15225;50.730;4.244;2023-12-22T18:44:54;10.00;;;2.83;;
27869;SDS011;15225;50.730;4.244;2023-12-22T18:47:23;7.38;;;2.10;;
27869;SDS011;15225;50.730;4.244;2023-12-22T18:49:53;7.13;;;2.20;;
27869;SDS011;15225;50.730;4.244;2023-12-22T18:52:19;6.65;;;2.17;;
27869;SDS011;15225;50.730;4.244;2023-12-22T18:54:45;5.22;;;2.33;;
27869;SDS011;15225;50.730;4.244;2023-12-22T18:57:10;7.78;;;2.25;;
27869;SDS011;15225;50.730;4.244;2023-12-22T18:59:36;5.65;;;1.90;;
27869;SDS011;15225;50.730;4.244;2023-12-22T19:02:02;7.72;;;2.08;;
27869;SDS011;15225;50.730;4.244;2023-12-22T19:04:27;8.30;;;2.65;;
27869;SDS011;15225;50.730;4.244;2023-12-22T19:06:53;8.15;;;2.10;;
27869;SDS011;15225;50.730;4.244;2023-12-22T19:09:18;10.18;;;2.28;;
27869;SDS011;15225;50.730;4.244;2023-12-22T19:11:44;5.15;;;2.03;;
27869;SDS011;15225;50.730;4.244;2023-12-22T19:14:11;13.35;;;2.85;;
27869;SDS011;15225;50.730;4.244;2023-12-22T19:16:38;6.35;;;1.83;;
27869;SDS011;15225;50.730;4.244;2023-12-22T19:19:04;10.30;;;2.55;;
27869;SDS011;15225;50.730;4.244;2023-12-22T19:21:29;9.77;;;2.28;;
27869;SDS011;15225;50.730;4.244;2023-12-22T19:23:55;9.85;;;2.05;;
27869;SDS011;15225;50.730;4.244;2023-12-22T19:26:20;12.18;;;2.70;;
27869;SDS011;15225;50.730;4.244;2023-12-22T19:28:46;9.38;;;2.13;;
27869;SDS011;15225;50.730;4.244;2023-12-22T19:31:12;14.02;;;2.47;;
27869;SDS011;15225;50.730;4.244;2023-12-22T19:33:38;6.88;;;2.17;;
27869;SDS011;15225;50.730;4.244;2023-12-22T19:36:05;8.00;;;2.45;;
27869;SDS011;15225;50.730;4.244;2023-12-22T19:38:31;8.55;;;2.40;;
27869;SDS011;15225;50.730;4.244;2023-12-22T19:40:57;10.43;;;2.20;;
27869;SDS011;15225;50.730;4.244;2023-12-22T19:43:22;11.00;;;2.25;;
27869;SDS011;15225;50.730;4.244;2023-12-22T19:45:48;7.57;;;1.85;;
27869;SDS011;15225;50.730;4.244;2023-12-22T19:48:14;5.93;;;2.20;;
27869;SDS011;15225;50.730;4.244;2023-12-22T19:50:39;13.57;;;2.85;;
27869;SDS011;15225;50.730;4.244;2023-12-22T19:53:05;10.93;;;2.70;;
27869;SDS011;15225;50.730;4.244;2023-12-22T19:55:31;10.77;;;2.80;;
27869;SDS011;15225;50.730;4.244;2023-12-22T19:57:57;8.82;;;2.50;;
27869;SDS011;15225;50.730;4.244;2023-12-22T20:00:22;8.00;;;2.50;;
27869;SDS011;15225;50.730;4.244;2023-12-22T20:02:48;11.98;;;2.70;;
27869;SDS011;15225;50.730;4.244;2023-12-22T20:05:14;8.48;;;2.40;;
27869;SDS011;15225;50.730;4.244;2023-12-22T20:07:40;7.07;;;2.17;;
27869;SDS011;15225;50.730;4.244;2023-12-22T20:10:06;9.20;;;2.55;;
27869;SDS011;15225;50.730;4.244;2023-12-22T20:12:32;8.43;;;2.58;;
27869;SDS011;15225;50.730;4.244;2023-12-22T20:14:58;7.00;;;2.55;;
27869;SDS011;15225;50.730;4.244;2023-12-22T20:17:24;13.65;;;2.75;;
27869;SDS011;15225;50.730;4.244;2023-12-22T20:19:50;9.27;;;2.80;;
27869;SDS011;15225;50.730;4.244;2023-12-22T20:22:16;8.02;;;2.50;;
27869;SDS011;15225;50.730;4.244;2023-12-22T20:24:42;11.65;;;2.13;;
27869;SDS011;15225;50.730;4.244;2023-12-22T20:27:07;9.13;;;2.38;;
27869;SDS011;15225;50.730;4.244;2023-12-22T20:29:33;10.25;;;2.47;;
27869;SDS011;15225;50.730;4.244;2023-12-22T20:31:58;10.60;;;2.90;;
27869;SDS011;15225;50.730;4.244;2023-12-22T20:34:25;16.45;;;2.67;;
27869;SDS011;15225;50.730;4.244;2023-12-22T20:36:50;12.15;;;2.30;;
27869;SDS011;15225;50.730;4.244;2023-12-22T20:39:19;8.10;;;1.88;;
27869;SDS011;15225;50.730;4.244;2023-12-22T20:41:44;11.27;;;2.28;;
27869;SDS011;15225;50.730;4.244;2023-12-22T20:44:10;8.52;;;2.10;;
27869;SDS011;15225;50.730;4.244;2023-12-22T20:46:36;8.90;;;2.38;;
27869;SDS011;15225;50.730;4.244;2023-12-22T20:49:02;13.70;;;2.50;;
27869;SDS011;15225;50.730;4.244;2023-12-22T20:51:28;8.65;;;2.13;;
27869;SDS011;15225;50.730;4.244;2023-12-22T20:53:54;7.28;;;2.20;;
27869;SDS011;15225;50.730;4.244;2023-12-22T20:56:20;9.75;;;2.33;;
27869;SDS011;15225;50.730;4.244;2023-12-22T20:58:48;9.93;;;2.28;;
27869;SDS011;15225;50.730;4.244;2023-12-22T21:01:14;6.28;;;2.55;;
27869;SDS011;15225;50.730;4.244;2023-12-22T21:03:40;11.63;;;3.50;;
27869;SDS011;15225;50.730;4.244;2023-12-22T21:06:09;8.90;;;2.70;;
27869;SDS011;15225;50.730;4.244;2023-12-22T21:08:35;6.78;;;2.30;;
27869;SDS011;15225;50.730;4.244;2023-12-22T21:11:00;10.23;;;2.25;;
27869;SDS011;15225;50.730;4.244;2023-12-22T21:13:30;9.90;;;2.92;;
27869;SDS011;15225;50.730;4.244;2023-12-22T21:15:58;11.68;;;2.50;;
27869;SDS011;15225;50.730;4.244;2023-12-22T21:18:24;8.70;;;2.50;;
27869;SDS011;15225;50.730;4.244;2023-12-22T21:20:50;15.57;;;2.72;;
27869;SDS011;15225;50.730;4.244;2023-12-22T21:23:16;4.40;;;2.10;;
27869;SDS011;15225;50.730;4.244;2023-12-22T21:25:41;8.38;;;2.65;;
27869;SDS011;15225;50.730;4.244;2023-12-22T21:28:07;8.40;;;2.45;;
27869;SDS011;15225;50.730;4.244;2023-12-22T21:30:33;11.27;;;2.47;;
27869;SDS011;15225;50.730;4.244;2023-12-22T21:32:58;7.85;;;1.90;;
27869;SDS011;15225;50.730;4.244;2023-12-22T21:35:26;8.70;;;2.22;;
27869;SDS011;15225;50.730;4.244;2023-12-22T21:37:52;5.65;;;2.25;;
27869;SDS011;15225;50.730;4.244;2023-12-22T21:40:18;6.38;;;1.90;;
27869;SDS011;15225;50.730;4.244;2023-12-22T21:42:44;8.05;;;2.42;;
27869;SDS011;15225;50.730;4.244;2023-12-22T21:45:11;6.25;;;1.92;;
27869;SDS011;15225;50.730;4.244;2023-12-22T21:47:37;7.13;;;1.83;;
27869;SDS011;15225;50.730;4.244;2023-12-22T21:50:03;6.47;;;1.80;;
27869;SDS011;15225;50.730;4.244;2023-12-22T21:52:29;8.55;;;2.33;;
27869;SDS011;15225;50.730;4.244;2023-12-22T21:54:55;8.70;;;2.95;;
27869;SDS011;15225;50.730;4.244;2023-12-22T21:57:21;8.88;;;1.85;;
27869;SDS011;15225;50.730;4.244;2023-12-22T21:59:47;9.73;;;2.55;;
27869;SDS011;15225;50.730;4.244;2023-12-22T22:02:13;9.27;;;2.85;;
27869;SDS011;15225;50.730;4.244;2023-12-22T22:04:39;6.30;;;1.80;;
27869;SDS011;15225;50.730;4.244;2023-12-22T22:07:07;10.98;;;2.58;;
27869;SDS011;15225;50.730;4.244;2023-12-22T22:09:35;9.77;;;2.55;;
27869;SDS011;15225;50.730;4.244;2023-12-22T22:12:01;11.07;;;2.55;;
27869;SDS011;15225;50.730;4.244;2023-12-22T22:14:26;8.23;;;2.20;;
27869;SDS011;15225;50.730;4.244;2023-12-22T22:16:52;9.77;;;3.00;;
27869;SDS011;15225;50.730;4.244;2023-12-22T22:19:18;16.77;;;2.90;;
27869;SDS011;15225;50.730;4.244;2023-12-22T22:21:44;10.10;;;2.70;;
27869;SDS011;15225;50.730;4.244;2023-12-22T22:24:09;8.85;;;2.55;;
27869;SDS011;15225;50.730;4.244;2023-12-22T22:26:39;10.77;;;2.65;;
27869;SDS011;15225;50.730;4.244;2023-12-22T22:29:05;10.70;;;2.53;;
27869;SDS011;15225;50.730;4.244;2023-12-22T22:31:38;11.55;;;2.88;;
27869;SDS011;15225;50.730;4.244;2023-12-22T22:34:04;8.48;;;2.67;;
27869;SDS011;15225;50.730;4.244;2023-12-22T22:36:30;6.22;;;2.40;;
27869;SDS011;15225;50.730;4.244;2023-12-22T22:38:55;15.70;;;3.15;;
27869;SDS011;15225;50.730;4.244;2023-12-22T22:41:21;14.18;;;3.15;;
27869;SDS011;15225;50.730;4.244;2023-12-22T22:43:49;9.55;;;2.50;;
27869;SDS011;15225;50.730;4.244;2023-12-22T22:46:15;14.50;;;3.38;;
27869;SDS011;15225;50.730;4.244;2023-12-22T22:48:41;12.50;;;2.83;;
27869;SDS011;15225;50.730;4.244;2023-12-22T22:51:07;24.42;;;3.85;;
27869;SDS011;15225;50.730;4.244;2023-12-22T22:53:32;16.63;;;3.35;;
27869;SDS011;15225;50.730;4.244;2023-12-22T22:56:00;16.55;;;3.30;;
27869;SDS011;15225;50.730;4.244;2023-12-22T22:58:26;12.20;;;2.70;;
27869;SDS011;15225;50.730;4.244;2023-12-22T23:00:51;15.90;;;3.30;;
27869;SDS011;15225;50.730;4.244;2023-12-22T23:03:18;15.15;;;3.15;;
27869;SDS011;15225;50.730;4.244;2023-12-22T23:05:43;9.60;;;2.58;;
27869;SDS011;15225;50.730;4.244;2023-12-22T23:08:11;12.00;;;2.95;;
27869;SDS011;15225;50.730;4.244;2023-12-22T23:10:36;13.10;;;2.88;;
27869;SDS011;15225;50.730;4.244;2023-12-22T23:13:02;11.98;;;3.38;;
27869;SDS011;15225;50.730;4.244;2023-12-22T23:15:28;11.98;;;3.03;;
27869;SDS011;15225;50.730;4.244;2023-12-22T23:17:54;14.70;;;3.40;;
27869;SDS011;15225;50.730;4.244;2023-12-22T23:20:19;7.65;;;2.70;;
27869;SDS011;15225;50.730;4.244;2023-12-22T23:22:45;11.82;;;2.88;;
27869;SDS011;15225;50.730;4.244;2023-12-22T23:25:11;11.90;;;2.75;;
27869;SDS011;15225;50.730;4.244;2023-12-22T23:27:36;9.80;;;2.97;;
27869;SDS011;15225;50.730;4.244;2023-12-22T23:30:02;13.63;;;3.13;;
27869;SDS011;15225;50.730;4.244;2023-12-22T23:32:30;12.68;;;2.85;;
